Pagina principale
METAR-TAF:

METAR-TAF

Aeroporti :

Aeroporto di Londra-Ashford

Lydd, Inghilterra

latitudine: 50-57N, longitudine: 000-56E, altezza: 3 m

Osservazione

Il bollettino è stato emesso 43 minuti fa, alle 09:50 UTC
Vento 9 kt da ovest, variando fra ovest/sud-ovest e nord-ovest
Temperature 17°C
Umidità 68%
Pressione 1008 hPa
Visibilità 10 km o più

METAR: EGMD 070950Z AUTO 28009KT 240V310 9999 FEW028/// 17/11 Q1008

Ora: 11:33 (10:33 UTC)

Previsione

Il bollettino è stato emesso 2 ore e 3 minuti fa, alle 08:30 UTC
Previsione valida dal 07 alle 09 UTC al 07 alle 18 UTC
Vento 12 kt da ovest/sud-ovest
Visibilità 10 km o più
Poco nuvoloso ad un'altezza di 2500 ft
Probabilità 40% :
Temporaneamente
dal 07 alle 13 UTC al 07 alle 18 UTC
Visibilità: 7000 m
rovesci di pioggia
Evoluzione graduale
dal 07 alle 15 UTC al 07 alle 18 UTC
Vento 7 kt da nord/nord-ovest

TAF: EGMD 070830Z 0709/0718 24012KT 9999 FEW025 PROB40 TEMPO 0713/0718 7000 SHRA BECMG 0715/0718 34007KT

Osservazioni e previsioni meteorologiche di più di 4000 aeroporti (messaggi METAR e TAF).

Le stazioni disponibili sono rappresentate dai dischi gialli e rossi sulla carta.

Puntare il mouse per vedere il nome della stazione.

Clicca sopra per visualizzare le osservazioni e previsioni meteorologiche.

Per cambiare la mappa : fare clic sui pulsanti verdi con una croce nera per ingrandire, il pulsante verde con un trattino per diminuire, o sulla freccia verde per le mappe adiacenti.


METAR-TAF: